Time,TemperatureF,DewpointF,PressureIn,WindDirection,WindDirectionDegrees,WindSpeedMPH,WindSpeedGustMPH,Humidity,HourlyPrecipIn,Conditions,Clouds,dailyrainin,SoftwareType,DateUTC
2013-07-02 00:01:00,65.0,53.0,-100.00,ESE,110,14.0,16.0,64,-99.99,,,0.00,,2013-07-02 06:01:00,
2013-07-02 00:11:00,65.0,52.0,-100.00,ESE,110,14.0,17.0,63,-99.99,,,0.00,,2013-07-02 06:11:00,
2013-07-02 00:23:00,65.0,52.0,-100.00,ESE,110,14.0,17.0,63,-99.99,,,0.00,,2013-07-02 06:23:00,
2013-07-02 00:34:00,64.0,52.0,-100.00,ESE,105,13.0,14.0,64,-99.99,,,0.00,,2013-07-02 06:34:00,
2013-07-02 00:43:00,64.0,52.0,-100.00,ESE,105,13.0,14.0,64,-99.99,,,0.00,,2013-07-02 06:43:00,
2013-07-02 00:53:00,63.0,51.0,-100.00,ESE,105,12.0,13.0,65,-99.99,,,0.00,,2013-07-02 06:53:00,
2013-07-02 01:01:00,63.0,51.0,-100.00,ESE,105,12.0,13.0,65,-99.99,,,0.00,,2013-07-02 07:01:00,
2013-07-02 01:11:00,64.0,51.0,-100.00,ESE,105,13.0,16.0,63,-99.99,,,0.00,,2013-07-02 07:11:00,
2013-07-02 01:22:00,64.0,51.0,-100.00,ESE,105,13.0,16.0,63,-99.99,,,0.00,,2013-07-02 07:22:00,
2013-07-02 01:34:00,63.0,51.0,-100.00,ESE,105,12.0,13.0,64,-99.99,,,0.00,,2013-07-02 07:34:00,
2013-07-02 01:44:00,63.0,51.0,-100.00,ESE,105,12.0,13.0,64,-99.99,,,0.00,,2013-07-02 07:44:00,
2013-07-02 01:53:00,63.0,51.0,-100.00,ESE,110,12.0,14.0,64,-99.99,,,0.00,,2013-07-02 07:53:00,
2013-07-02 02:02:00,63.0,51.0,-100.00,ESE,110,12.0,14.0,64,-99.99,,,0.00,,2013-07-02 08:02:00,
2013-07-02 02:12:00,62.0,50.0,-100.00,ESE,110,12.0,13.0,66,-99.99,,,0.00,,2013-07-02 08:12:00,
2013-07-02 02:22:00,62.0,50.0,-100.00,ESE,110,12.0,13.0,66,-99.99,,,0.00,,2013-07-02 08:22:00,
2013-07-02 02:33:00,61.0,50.0,-100.00,ESE,115,11.0,12.0,67,-99.99,,,0.00,,2013-07-02 08:33:00,
2013-07-02 02:44:00,61.0,50.0,-100.00,ESE,115,11.0,12.0,67,-99.99,,,0.00,,2013-07-02 08:44:00,
2013-07-02 02:53:00,62.0,51.0,-100.00,ESE,110,14.0,15.0,67,-99.99,,,0.00,,2013-07-02 08:53:00,
2013-07-02 03:02:00,62.0,51.0,-100.00,ESE,110,14.0,15.0,67,-99.99,,,0.00,,2013-07-02 09:02:00,
2013-07-02 03:11:00,61.0,50.0,-100.00,ESE,110,12.0,15.0,67,-99.99,,,0.00,,2013-07-02 09:11:00,
2013-07-02 03:23:00,61.0,50.0,-100.00,ESE,110,12.0,15.0,67,-99.99,,,0.00,,2013-07-02 09:23:00,
2013-07-02 03:33:00,61.0,50.0,-100.00,ESE,110,14.0,16.0,67,-99.99,,,0.00,,2013-07-02 09:33:00,
2013-07-02 03:43:00,61.0,50.0,-100.00,ESE,110,14.0,16.0,67,-99.99,,,0.00,,2013-07-02 09:43:00,
2013-07-02 03:52:00,61.0,50.0,-100.00,ESE,110,12.0,14.0,69,-99.99,,,0.00,,2013-07-02 09:52:00,
2013-07-02 04:01:00,61.0,50.0,-100.00,ESE,110,12.0,14.0,69,-99.99,,,0.00,,2013-07-02 10:01:00,
2013-07-02 04:11:00,60.0,50.0,-100.00,ESE,105,13.0,14.0,70,-99.99,,,0.00,,2013-07-02 10:11:00,
2013-07-02 04:22:00,60.0,50.0,-100.00,ESE,105,13.0,14.0,70,-99.99,,,0.00,,2013-07-02 10:22:00,
2013-07-02 04:33:00,59.0,50.0,-100.00,ESE,110,11.0,12.0,72,-99.99,,,0.00,,2013-07-02 10:33:00,
2013-07-02 04:43:00,59.0,50.0,-100.00,ESE,110,11.0,12.0,72,-99.99,,,0.00,,2013-07-02 10:43:00,
2013-07-02 04:52:00,59.0,51.0,-100.00,ESE,105,11.0,12.0,73,-99.99,,,0.00,,2013-07-02 10:52:00,
2013-07-02 05:01:00,59.0,51.0,-100.00,ESE,105,11.0,12.0,73,-99.99,,,0.00,,2013-07-02 11:01:00,
2013-07-02 05:11:00,60.0,51.0,-100.00,ESE,110,11.0,11.0,72,-99.99,,,0.00,,2013-07-02 11:11:00,
2013-07-02 05:22:00,60.0,51.0,-100.00,ESE,110,11.0,11.0,72,-99.99,,,0.00,,2013-07-02 11:22:00,
2013-07-02 05:33:00,59.0,50.0,-100.00,East,100,11.0,11.0,72,-99.99,,,0.00,,2013-07-02 11:33:00,
2013-07-02 05:42:00,59.0,50.0,-100.00,East,100,11.0,11.0,72,-99.99,,,0.00,,2013-07-02 11:42:00,
2013-07-02 05:52:00,59.0,50.0,-100.00,East,100,11.0,12.0,74,-99.99,,,0.00,,2013-07-02 11:52:00,
2013-07-02 06:01:00,59.0,50.0,-100.00,East,100,11.0,12.0,74,-99.99,,,0.00,,2013-07-02 12:01:00,
2013-07-02 06:11:00,59.0,51.0,-100.00,East,100,11.0,12.0,73,-99.99,,,0.00,,2013-07-02 12:11:00,
2013-07-02 06:23:00,59.0,51.0,-100.00,East,100,11.0,12.0,73,-99.99,,,0.00,,2013-07-02 12:23:00,
2013-07-02 06:33:00,60.0,51.0,-100.00,East,100,12.0,13.0,71,-99.99,,,0.00,,2013-07-02 12:33:00,
2013-07-02 06:43:00,60.0,51.0,-100.00,East,100,12.0,13.0,71,-99.99,,,0.00,,2013-07-02 12:43:00,
2013-07-02 06:52:00,61.0,51.0,-100.00,East,100,11.0,12.0,70,-99.99,,,0.00,,2013-07-02 12:52:00,
2013-07-02 07:01:00,61.0,51.0,-100.00,East,100,11.0,12.0,70,-99.99,,,0.00,,2013-07-02 13:01:00,
2013-07-02 07:11:00,62.0,52.0,-100.00,East,95,9.0,11.0,69,-99.99,,,0.00,,2013-07-02 13:11:00,
2013-07-02 07:22:00,62.0,52.0,-100.00,East,95,9.0,11.0,69,-99.99,,,0.00,,2013-07-02 13:22:00,
2013-07-02 07:34:00,64.0,52.0,-100.00,East,95,10.0,12.0,64,-99.99,,,0.00,,2013-07-02 13:34:00,
2013-07-02 07:43:00,64.0,52.0,-100.00,East,95,10.0,12.0,64,-99.99,,,0.00,,2013-07-02 13:43:00,
2013-07-02 07:52:00,65.0,52.0,-100.00,East,95,11.0,12.0,63,-99.99,,,0.00,,2013-07-02 13:52:00,
2013-07-02 08:02:00,65.0,52.0,-100.00,East,95,11.0,12.0,63,-99.99,,,0.00,,2013-07-02 14:02:00,
2013-07-02 08:11:00,68.0,53.0,-100.00,ESE,110,8.0,11.0,60,-99.99,,,0.00,,2013-07-02 14:11:00,
2013-07-02 08:22:00,68.0,53.0,-100.00,ESE,110,8.0,11.0,60,-99.99,,,0.00,,2013-07-02 14:22:00,
2013-07-02 08:33:00,69.0,54.0,-100.00,ESE,110,8.0,9.0,58,-99.99,,,0.00,,2013-07-02 14:33:00,
2013-07-02 08:43:00,69.0,54.0,-100.00,ESE,110,8.0,9.0,58,-99.99,,,0.00,,2013-07-02 14:43:00,
2013-07-02 08:53:00,69.0,54.0,-100.00,ESE,110,8.0,9.0,58,-99.99,,,0.00,,2013-07-02 14:53:00,
2013-07-02 11:53:00,80.0,51.0,-100.00,ENE,75,13.0,16.0,37,-99.99,,,0.00,,2013-07-02 17:53:00,
2013-07-02 12:02:00,80.0,51.0,-100.00,ENE,75,13.0,16.0,37,-99.99,,,0.00,,2013-07-02 18:02:00,
2013-07-02 12:12:00,81.0,52.0,-100.00,ENE,75,9.0,12.0,37,-99.99,,,0.00,,2013-07-02 18:12:00,
2013-07-02 12:23:00,81.0,52.0,-100.00,ENE,75,9.0,12.0,37,-99.99,,,0.00,,2013-07-02 18:23:00,
2013-07-02 12:34:00,81.0,52.0,-100.00,ENE,75,9.0,12.0,37,-99.99,,,0.00,,2013-07-02 18:34:00,
2013-07-02 12:43:00,81.0,52.0,-100.00,ENE,75,9.0,12.0,37,-99.99,,,0.00,,2013-07-02 18:43:00,
2013-07-02 12:53:00,82.0,51.0,-100.00,East,100,8.0,9.0,35,-99.99,,,0.00,,2013-07-02 18:53:00,
2013-07-02 13:01:00,82.0,51.0,-100.00,East,100,8.0,9.0,35,-99.99,,,0.00,,2013-07-02 19:01:00,
2013-07-02 13:12:00,82.0,51.0,-100.00,SE,130,9.0,10.0,35,-99.99,,,0.00,,2013-07-02 19:12:00,
2013-07-02 13:22:00,82.0,51.0,-100.00,SE,130,9.0,10.0,35,-99.99,,,0.00,,2013-07-02 19:22:00,
2013-07-02 13:34:00,82.0,52.0,-100.00,ESE,115,9.0,11.0,35,-99.99,,,0.00,,2013-07-02 19:34:00,
2013-07-02 13:43:00,82.0,52.0,-100.00,ESE,115,9.0,11.0,35,-99.99,,,0.00,,2013-07-02 19:43:00,
2013-07-02 13:53:00,82.0,51.0,-100.00,East,90,11.0,14.0,34,-99.99,,,0.00,,2013-07-02 19:53:00,
2013-07-02 14:02:00,82.0,51.0,-100.00,East,90,11.0,14.0,34,-99.99,,,0.00,,2013-07-02 20:02:00,
2013-07-02 14:11:00,83.0,50.0,-100.00,East,80,6.0,8.0,31,-99.99,,,0.00,,2013-07-02 20:11:00,
2013-07-02 14:22:00,83.0,50.0,-100.00,East,80,6.0,8.0,31,-99.99,,,0.00,,2013-07-02 20:22:00,
2013-07-02 14:33:00,83.0,49.0,-100.00,SE,135,7.0,10.0,31,-99.99,,,0.00,,2013-07-02 20:33:00,
2013-07-02 14:43:00,83.0,49.0,-100.00,SE,135,7.0,10.0,31,-99.99,,,0.00,,2013-07-02 20:43:00,
2013-07-02 14:52:00,83.0,50.0,-100.00,ESE,105,6.0,9.0,32,-99.99,,,0.00,,2013-07-02 20:52:00,
2013-07-02 15:02:00,83.0,50.0,-100.00,ESE,105,6.0,9.0,32,-99.99,,,0.00,,2013-07-02 21:02:00,
2013-07-02 15:11:00,84.0,51.0,-100.00,ENE,60,9.0,11.0,32,-99.99,,,0.00,,2013-07-02 21:11:00,
2013-07-02 15:22:00,84.0,51.0,-100.00,ENE,60,9.0,11.0,32,-99.99,,,0.00,,2013-07-02 21:22:00,
2013-07-02 15:33:00,84.0,51.0,-100.00,ENE,60,9.0,11.0,32,-99.99,,,0.00,,2013-07-02 21:33:00,
2013-07-02 15:44:00,84.0,51.0,-100.00,ENE,60,9.0,11.0,32,-99.99,,,0.00,,2013-07-02 21:44:00,
2013-07-02 15:52:00,84.0,50.0,-100.00,NE,55,8.0,9.0,31,-99.99,,,0.00,,2013-07-02 21:52:00,
2013-07-02 16:01:00,84.0,50.0,-100.00,NE,55,8.0,9.0,31,-99.99,,,0.00,,2013-07-02 22:01:00,
2013-07-02 16:11:00,84.0,49.0,-100.00,ENE,60,9.0,11.0,30,-99.99,,,0.00,,2013-07-02 22:11:00,
2013-07-02 16:22:00,84.0,49.0,-100.00,ENE,60,9.0,11.0,30,-99.99,,,0.00,,2013-07-02 22:22:00,
2013-07-02 16:34:00,84.0,49.0,-100.00,ENE,60,9.0,11.0,30,-99.99,,,0.00,,2013-07-02 22:34:00,
2013-07-02 16:43:00,84.0,49.0,-100.00,ENE,60,9.0,11.0,30,-99.99,,,0.00,,2013-07-02 22:43:00,